Airfield :
LOGIN :

Register | Disclaimer

   EN    FR    IT 

 










Legend :    VFR   Marginal VFR   IFR   Intensive IFR   Very Intensive IFR
Visi :
Ceiling :
>= 8 km
>= 3000ft
5 to 8 km
1000 to 3000 ft
1500m to 5 km
500 to 1000 ft
800 to 1500m
200 to 500 ft
< 800m
< 200 ft
Symbols :   Thunderstorms  Fog  Heavy snow  Heavy precipitations  Wind > 20 kt
SIGMETs :     Misc.  Thunderstorms  Icing  Turbulence  Mountain Waves  Volcanic Ashes






- Airport Elevation : 587 ft
- IATA code : XCR


LFOK - Chalons Vatry

CURRENT METAR :
  • 280430Z AUTO 18006KT 9999 FEW001 07/07 Q1020 NOSIG

EXPIRED METARs :
  • 280400Z AUTO 19006KT CAVOK 06/06 Q1020 TEMPO 3000 BR
  • 280330Z AUTO 20008KT CAVOK 06/06 Q1020 NOSIG
  • 280300Z AUTO 20006KT 9999 4200 NSC 06/06 Q1020 NOSIG
  • 280230Z AUTO 18005KT CAVOK 07/07 Q1020 NOSIG
  • 280200Z AUTO 17005KT CAVOK 07/06 Q1020 NOSIG
  • 280130Z AUTO 18005KT CAVOK 08/07 Q1021 NOSIG
  • 280100Z AUTO 18007KT CAVOK 07/07 Q1021 NOSIG
  • 280030Z AUTO 18004KT CAVOK 08/07 Q1021 NOSIG
  • 280000Z AUTO 18003KT CAVOK 08/08 Q1021 NOSIG

TAF AMD TAF LFOK
Valid from the 28 at 03:00 until the 29 at 00:00 UTC


280339Z 2803/2824 21004KT CAVOK
PROB40
TEMPO 2803/2805 3000 BR
PROB30
TEMPO 2814/2818 4000 RA BKN012



MET'MAP, your aeronautical weather chart ! - Copyright ORBIFLY December 2007 - Disclaimer

ORBIFLY MET'MAP TEAM :

Programming & Development : Alexandra Zaïnal
Original concept : Baudouin d'Aumeries
Technical & hardware support : Manuel Goepfert
Assistance : Marc-Olivier Méhu




SOURCES & CREDITS :

   NOAA